Richelieu, Canada
Current Conditions -  °F | °C
As of 3:00 PM on Friday 19 Dec 2014 (Local Time) from CYND Reporting Station
Few Clouds Few Clouds  
Wind Chill: 13°   Ceiling: Unl
Heat Index: 21°   Visibility: 15mi
Dew Point: 14°   Wind: 7mph
Humidity: 74%   Direction: 280°W
Pressure: 30.15"   Gusts: NA
Location:  45.45°N, 75.25°W
Report Text: CYND 192000Z 28006KT 15SM FEW220 M06/M10 A3015 RMK CI1 SLP214
Loading
Personal Weather Stations






























Interactive Weather Map New forecast layout! Learn more

10-Day Weather Forecast

Advertisements
Track Severe Weather on mobile